In Rescue
 
Open Full Screen Window  High Contrast Mode
Wind Gusting 00 knots
08
July 13, 2020 10:14 AM CDT
Weather Information
Wind Direction
  170 °
Wind Speed
  08 kt (9 mph)
Wind Gust
  00 kt (0 mph)
Altimeter
29.94 in
Visibility
10 SM
Temperature
26° C
79° F
Dewpoint
17° C
63° F
Humidity
58%
1hr Rain Fall
00.00 in.
24hr Rain Fall
00.00 in.
Sky Condition
Clear
VFR

METAR KSYN 131514Z AUTO 17008KT 10SM CLR 26/17 A2994 RMK AO2 T02560170

FAA Disclaimer: The data displayed is for advisory purposes only and is not to be used for flight planning or operations.